createdAt,value
2018-05-11T00:02:10.100Z,62.05
2018-05-11T00:04:38.452Z,61.81
2018-05-11T00:07:06.830Z,61.97
2018-05-11T00:09:35.170Z,61.90
2018-05-11T00:12:05.260Z,61.25
2018-05-11T00:14:34.432Z,61.32
2018-05-11T00:17:03.653Z,61.20
2018-05-11T00:19:32.007Z,60.99
2018-05-11T00:22:00.345Z,61.16
2018-05-11T00:24:29.456Z,60.26
2018-05-11T00:26:58.626Z,60.56
2018-05-11T00:29:27.831Z,60.56
2018-05-11T00:31:57.835Z,60.79
2018-05-11T00:34:26.418Z,60.63
2018-05-11T00:36:54.837Z,60.84
2018-05-11T00:39:23.768Z,60.84
2018-05-11T00:41:52.869Z,60.67
2018-05-11T00:44:22.026Z,61.00
2018-05-11T00:46:50.475Z,61.10
2018-05-11T00:49:19.601Z,61.43
2018-05-11T00:51:49.548Z,61.56
2018-05-11T00:54:18.017Z,61.06
2018-05-11T00:56:46.379Z,60.57
2018-05-11T00:59:14.750Z,60.91
2018-05-11T01:01:43.186Z,60.72
2018-05-11T01:04:11.509Z,60.81
2018-05-11T01:06:39.900Z,60.87
2018-05-11T01:09:08.396Z,60.97
2018-05-11T01:11:36.758Z,60.84
2018-05-11T01:14:05.177Z,61.18
2018-05-11T01:16:33.977Z,61.47
2018-05-11T01:19:03.700Z,61.76
2018-05-11T01:21:33.025Z,61.60
2018-05-11T01:24:02.107Z,61.33
2018-05-11T01:26:31.249Z,61.05
2018-05-11T01:28:59.589Z,61.17
2018-05-11T01:31:29.499Z,61.09
2018-05-11T01:33:58.649Z,61.07
2018-05-11T01:36:27.793Z,61.51
2018-05-11T01:38:57.026Z,61.50
2018-05-11T01:41:25.421Z,61.56
2018-05-11T01:43:53.774Z,61.46
2018-05-11T01:46:22.869Z,61.59
2018-05-11T01:48:51.245Z,61.79
2018-05-11T01:51:19.636Z,62.20
2018-05-11T01:53:48.045Z,62.58
2018-05-11T01:56:17.318Z,62.75
2018-05-11T01:58:46.578Z,62.23
2018-05-11T02:01:16.834Z,62.31
2018-05-11T02:03:46.753Z,62.42
2018-05-11T02:06:15.124Z,62.61
2018-05-11T02:08:44.954Z,62.61
2018-05-11T02:11:13.637Z,62.57
2018-05-11T02:13:42.800Z,63.03
2018-05-11T02:16:11.923Z,63.22
2018-05-11T02:18:40.296Z,63.50
2018-05-11T02:21:09.510Z,64.01
2018-05-11T02:23:37.838Z,63.92
2018-05-11T02:26:06.923Z,63.92
2018-05-11T02:28:35.297Z,63.71
2018-05-11T02:31:03.651Z,63.62
2018-05-11T02:33:32.285Z,63.57
2018-05-11T02:36:00.658Z,63.77
2018-05-11T02:38:29.789Z,63.75
2018-05-11T02:40:58.162Z,63.88
2018-05-11T02:43:26.530Z,63.81
2018-05-11T02:45:54.853Z,64.08
2018-05-11T02:48:23.328Z,64.07
2018-05-11T02:50:51.724Z,63.66
2018-05-11T02:53:20.073Z,63.46
2018-05-11T02:55:48.525Z,63.44
2018-05-11T02:58:16.890Z,62.83
2018-05-11T03:00:45.518Z,63.22
2018-05-11T03:03:16.237Z,63.15
2018-05-11T03:05:44.612Z,63.24
2018-05-11T03:08:13.622Z,63.39
2018-05-11T03:10:41.988Z,63.25
2018-05-11T03:13:10.358Z,63.42
2018-05-11T03:15:39.565Z,63.35
2018-05-11T03:18:09.281Z,63.15
2018-05-11T03:20:37.960Z,63.09
2018-05-11T03:23:06.311Z,63.35
2018-05-11T03:25:35.457Z,63.68
2018-05-11T03:28:03.816Z,63.32
2018-05-11T03:30:32.188Z,63.23
2018-05-11T03:33:00.659Z,63.57
2018-05-11T03:35:28.979Z,63.56
2018-05-11T03:37:57.402Z,63.38
2018-05-11T03:40:25.795Z,63.41
2018-05-11T03:42:54.949Z,63.45
2018-05-11T03:45:23.332Z,63.53
2018-05-11T03:47:51.705Z,63.38
2018-05-11T03:50:20.051Z,63.29
2018-05-11T03:52:48.405Z,63.21
2018-05-11T03:55:16.770Z,63.43
2018-05-11T03:57:45.897Z,63.65
2018-05-11T04:00:15.190Z,63.75
2018-05-11T04:03:01.428Z,63.59
2018-05-11T04:05:48.906Z,63.63
2018-05-11T04:08:44.159Z,63.50
2018-05-11T04:11:12.528Z,63.76
2018-05-11T04:13:40.896Z,63.37
2018-05-11T04:16:09.288Z,63.52
2018-05-11T04:18:37.666Z,63.53
2018-05-11T04:21:06.975Z,63.45
2018-05-11T04:23:35.321Z,63.56
2018-05-11T04:26:03.695Z,63.31
2018-05-11T04:28:32.097Z,63.37
2018-05-11T04:31:02.133Z,63.81
2018-05-11T04:33:30.527Z,63.88
2018-05-11T04:35:59.638Z,64.09
2018-05-11T04:38:28.030Z,64.24
2018-05-11T04:40:56.912Z,64.10
2018-05-11T04:43:26.031Z,63.62
2018-05-11T04:45:54.370Z,63.74
2018-05-11T04:48:23.524Z,63.57
2018-05-11T04:50:51.911Z,62.83
2018-05-11T04:53:22.065Z,62.77
2018-05-11T04:55:51.250Z,62.71
2018-05-11T04:58:19.615Z,61.96
2018-05-11T05:00:48.156Z,61.21
2018-05-11T05:03:16.515Z,61.25
2018-05-11T05:05:45.652Z,60.97
2018-05-11T05:08:13.987Z,60.28
2018-05-11T05:10:43.271Z,60.16
2018-05-11T05:13:12.649Z,60.13
2018-05-11T05:15:41.058Z,60.04
2018-05-11T05:18:10.214Z,60.24
2018-05-11T05:20:38.590Z,59.99
2018-05-11T05:23:06.983Z,60.37
2018-05-11T05:25:35.441Z,60.03
2018-05-11T05:28:03.793Z,60.40
2018-05-11T05:30:33.129Z,60.56
2018-05-11T05:33:01.578Z,60.09
2018-05-11T05:35:31.529Z,59.97
2018-05-11T05:38:00.331Z,60.04
2018-05-11T05:40:28.657Z,60.15
2018-05-11T05:42:58.402Z,60.06
2018-05-11T05:45:26.831Z,59.49
2018-05-11T05:47:55.938Z,59.62
2018-05-11T05:50:27.954Z,59.31
2018-05-11T05:52:56.358Z,59.18
2018-05-11T05:55:24.755Z,59.22
2018-05-11T05:57:55.429Z,58.97
2018-05-11T06:00:23.801Z,58.63
2018-05-11T06:02:52.143Z,58.63
2018-05-11T06:05:21.369Z,58.24
2018-05-11T06:07:49.788Z,58.30
2018-05-11T06:10:18.153Z,58.13
2018-05-11T06:12:46.580Z,58.55
2018-05-11T06:15:14.973Z,58.26
2018-05-11T06:17:43.962Z,57.72
2018-05-11T06:20:12.340Z,58.09
2018-05-11T06:22:41.503Z,58.22
2018-05-11T06:25:10.505Z,58.02
2018-05-11T06:27:38.885Z,58.11
2018-05-11T06:30:07.499Z,58.07
2018-05-11T06:32:35.869Z,58.45
2018-05-11T06:35:05.247Z,58.57
2018-05-11T06:37:33.993Z,58.79
2018-05-11T06:40:03.151Z,58.96
2018-05-11T06:42:35.864Z,58.58
2018-05-11T06:45:05.214Z,58.16
2018-05-11T06:47:33.969Z,58.16
2018-05-11T06:50:03.727Z,58.59
2018-05-11T06:52:32.892Z,58.70
2018-05-11T06:55:01.270Z,59.05
2018-05-11T06:57:29.609Z,58.88
2018-05-11T06:59:58.928Z,58.33
2018-05-11T07:02:27.269Z,58.35
2018-05-11T07:04:55.767Z,58.34
2018-05-11T07:07:24.244Z,58.01
2018-05-11T07:09:52.579Z,57.77
2018-05-11T07:12:21.286Z,57.60
2018-05-11T07:14:50.621Z,56.97
2018-05-11T07:17:19.103Z,57.28
2018-05-11T07:19:47.518Z,57.29
2018-05-11T07:22:15.913Z,57.14
2018-05-11T07:24:44.251Z,57.08
2018-05-11T07:27:12.653Z,56.48
2018-05-11T07:29:41.030Z,56.78
2018-05-11T07:32:09.372Z,56.14
2018-05-11T07:34:39.035Z,56.04
2018-05-11T07:37:08.222Z,56.13
2018-05-11T07:39:36.609Z,55.82
2018-05-11T07:42:04.967Z,55.51
2018-05-11T07:44:33.345Z,55.67
2018-05-11T07:47:01.749Z,56.04
2018-05-11T07:49:30.147Z,56.32
2018-05-11T07:51:59.764Z,56.35
2018-05-11T07:54:28.170Z,56.06
2018-05-11T07:56:56.547Z,55.22
2018-05-11T07:59:24.884Z,54.98
2018-05-11T08:01:54.028Z,54.95
2018-05-11T08:04:22.404Z,55.00
2018-05-11T08:06:50.741Z,54.71
2018-05-11T08:09:19.088Z,54.28
2018-05-11T08:11:47.451Z,53.95
2018-05-11T08:14:16.168Z,53.78
2018-05-11T08:16:44.903Z,54.19
2018-05-11T08:19:15.403Z,54.02
2018-05-11T08:21:44.623Z,54.40
2018-05-11T08:24:12.944Z,55.05
2018-05-11T08:26:41.338Z,54.60
2018-05-11T08:29:09.667Z,54.72
2018-05-11T08:31:38.081Z,53.79
2018-05-11T08:34:06.467Z,53.44
2018-05-11T08:36:34.900Z,53.39
2018-05-11T08:39:04.445Z,53.01
2018-05-11T08:41:33.634Z,52.47
2018-05-11T08:44:02.047Z,52.39
2018-05-11T08:46:31.800Z,52.06
2018-05-11T08:49:00.205Z,52.28
2018-05-11T08:51:28.636Z,52.61
2018-05-11T08:53:57.017Z,52.99
2018-05-11T08:56:25.438Z,52.08
2018-05-11T08:58:53.802Z,51.65
2018-05-11T09:01:22.294Z,52.03
2018-05-11T09:03:50.638Z,51.46
2018-05-11T09:06:19.057Z,51.22
2018-05-11T09:08:47.420Z,50.64
2018-05-11T09:11:15.807Z,50.88
2018-05-11T09:13:44.198Z,50.71
2018-05-11T09:16:12.810Z,49.75
2018-05-11T09:18:42.008Z,48.99
2018-05-11T09:21:11.201Z,48.58
2018-05-11T09:23:39.889Z,48.78
2018-05-11T09:26:09.150Z,48.87
2018-05-11T09:28:38.360Z,48.23
2018-05-11T09:31:07.546Z,49.24
2018-05-11T09:33:35.934Z,48.40
2018-05-11T09:36:04.323Z,48.26
2018-05-11T09:38:32.681Z,48.73
2018-05-11T09:41:01.944Z,48.91
2018-05-11T09:43:31.086Z,48.86
2018-05-11T09:45:59.459Z,48.46
2018-05-11T09:48:27.936Z,47.69
2018-05-11T09:50:56.423Z,48.10
2018-05-11T09:53:24.773Z,48.34
2018-05-11T09:55:53.172Z,49.59
2018-05-11T09:58:21.578Z,48.14
2018-05-11T10:00:50.871Z,48.43
2018-05-11T10:03:19.234Z,47.80
2018-05-11T10:05:48.642Z,47.52
2018-05-11T10:08:17.031Z,47.40
2018-05-11T10:10:45.430Z,47.87
2018-05-11T10:13:15.639Z,47.16
2018-05-11T10:15:44.091Z,46.52
2018-05-11T10:18:12.471Z,45.74
2018-05-11T10:20:40.873Z,46.01
2018-05-11T10:23:09.237Z,46.54
2018-05-11T10:25:37.719Z,46.55
2018-05-11T10:28:06.115Z,46.81
2018-05-11T10:30:34.490Z,45.57
2018-05-11T10:33:02.922Z,45.83
2018-05-11T10:35:31.324Z,45.83
2018-05-11T10:37:59.829Z,46.13
2018-05-11T10:40:28.185Z,46.30
2018-05-11T10:42:56.607Z,47.02
2018-05-11T10:45:25.790Z,46.47
2018-05-11T10:47:54.146Z,46.90
2018-05-11T10:50:22.529Z,46.65
2018-05-11T10:52:51.951Z,46.82
2018-05-11T10:55:20.472Z,46.27
2018-05-11T10:57:49.680Z,47.01
2018-05-11T11:00:18.801Z,46.53
2018-05-11T11:02:47.200Z,46.43
2018-05-11T11:05:15.577Z,47.41
2018-05-11T11:07:43.986Z,47.49
2018-05-11T11:10:15.602Z,46.88
2018-05-11T11:12:44.040Z,47.06
2018-05-11T11:15:12.410Z,47.16
2018-05-11T11:17:40.792Z,46.94
2018-05-11T11:20:09.999Z,47.41
2018-05-11T11:22:38.366Z,46.72
2018-05-11T11:25:07.639Z,46.84
2018-05-11T11:27:35.980Z,46.64
2018-05-11T11:30:04.386Z,46.46
2018-05-11T11:32:32.900Z,47.26
2018-05-11T11:35:02.922Z,46.75
2018-05-11T11:37:32.148Z,47.14
2018-05-11T11:40:00.494Z,46.49
2018-05-11T11:42:30.042Z,46.56
2018-05-11T11:44:59.130Z,46.26
2018-05-11T11:47:28.129Z,46.57
2018-05-11T11:49:56.834Z,45.71
2018-05-11T11:52:25.297Z,44.81
2018-05-11T11:54:53.919Z,43.97
2018-05-11T11:57:22.282Z,44.64
2018-05-11T11:59:50.639Z,44.72
2018-05-11T12:02:22.512Z,44.28
2018-05-11T12:04:53.436Z,44.05
2018-05-11T12:07:21.806Z,43.90
2018-05-11T12:09:50.226Z,43.99
2018-05-11T12:12:19.084Z,44.79
2018-05-11T12:14:48.277Z,42.99
2018-05-11T12:17:17.489Z,43.22
2018-05-11T12:19:46.270Z,43.73
2018-05-11T12:22:14.705Z,44.17
2018-05-11T12:24:43.928Z,43.92
2018-05-11T12:27:12.355Z,43.80
2018-05-11T12:29:41.492Z,43.85
2018-05-11T12:32:10.668Z,43.64
2018-05-11T12:34:39.849Z,42.61
2018-05-11T12:37:08.234Z,43.23
2018-05-11T12:39:36.572Z,44.05
2018-05-11T12:42:04.916Z,42.97
2018-05-11T12:44:33.284Z,43.44
2018-05-11T12:47:02.915Z,42.25
2018-05-11T12:49:31.375Z,41.56
2018-05-11T12:52:00.499Z,41.29
2018-05-11T12:54:29.815Z,41.06
2018-05-11T12:56:58.290Z,41.32
2018-05-11T12:59:26.713Z,41.56
2018-05-11T13:01:55.307Z,42.03
2018-05-11T13:04:24.624Z,41.69
2018-05-11T13:06:53.066Z,41.79
2018-05-11T13:09:21.646Z,41.88
2018-05-11T13:11:50.021Z,42.18
2018-05-11T13:14:18.380Z,41.51
2018-05-11T13:16:46.756Z,41.27
2018-05-11T13:19:15.322Z,40.86
2018-05-11T13:21:43.649Z,39.49
2018-05-11T13:24:12.839Z,39.50
2018-05-11T13:26:41.233Z,40.16
2018-05-11T13:29:13.213Z,39.21
2018-05-11T13:31:42.990Z,38.57
2018-05-11T13:34:11.360Z,38.62
2018-05-11T13:36:40.006Z,39.59
2018-05-11T13:39:09.224Z,39.31
2018-05-11T13:41:37.611Z,38.88
2018-05-11T13:44:05.977Z,38.17
2018-05-11T13:46:34.357Z,38.70
2018-05-11T13:49:04.197Z,38.87
2018-05-11T13:51:33.154Z,38.25
2018-05-11T13:54:01.543Z,39.15
2018-05-11T13:56:29.938Z,39.34
2018-05-11T13:58:59.047Z,39.50
2018-05-11T14:01:27.432Z,40.45
2018-05-11T14:03:55.784Z,39.32
2018-05-11T14:06:24.863Z,38.70
2018-05-11T14:08:53.241Z,37.51
2018-05-11T14:11:21.588Z,37.69
2018-05-11T14:13:50.829Z,38.24
2018-05-11T14:16:19.837Z,37.69
2018-05-11T14:18:48.273Z,37.36
2018-05-11T14:21:17.409Z,37.78
2018-05-11T14:23:45.750Z,37.25
2018-05-11T14:26:15.614Z,36.50
2018-05-11T14:28:43.994Z,37.62
2018-05-11T14:31:13.173Z,36.31
2018-05-11T14:33:41.559Z,36.49
2018-05-11T14:36:09.968Z,35.92
2018-05-11T14:38:38.601Z,37.18
2018-05-11T14:41:06.962Z,36.17
2018-05-11T14:43:36.401Z,36.03
2018-05-11T14:46:05.725Z,36.48
2018-05-11T14:48:34.089Z,37.13
2018-05-11T14:51:02.672Z,36.39
2018-05-11T14:53:31.984Z,36.45
2018-05-11T14:56:00.377Z,36.00
2018-05-11T14:58:28.756Z,34.49
2018-05-11T15:00:57.324Z,37.43
2018-05-11T15:03:25.705Z,34.65
2018-05-11T15:05:54.068Z,36.55
2018-05-11T15:08:23.343Z,36.56
2018-05-11T15:10:51.784Z,37.79
2018-05-11T15:13:20.346Z,37.98
2018-05-11T15:15:48.806Z,38.46
2018-05-11T15:18:17.144Z,39.10
2018-05-11T15:20:48.140Z,39.69
2018-05-11T15:23:17.246Z,40.23
2018-05-11T15:25:46.038Z,39.41
2018-05-11T15:28:14.457Z,38.24
2018-05-11T15:30:44.155Z,38.01
2018-05-11T15:33:13.932Z,37.79
2018-05-11T15:35:42.316Z,39.00
2018-05-11T15:38:10.693Z,37.73
2018-05-11T15:40:39.126Z,38.06
2018-05-11T15:43:08.250Z,38.29
2018-05-11T15:45:37.553Z,37.46
2018-05-11T15:48:05.907Z,38.35
2018-05-11T15:50:34.245Z,38.19
2018-05-11T15:53:03.223Z,37.75
2018-05-11T15:55:31.617Z,39.09
2018-05-11T15:57:59.998Z,39.43
2018-05-11T16:00:28.450Z,39.51
2018-05-11T16:02:56.836Z,39.19
2018-05-11T16:05:26.005Z,39.52
2018-05-11T16:07:54.348Z,39.78
2018-05-11T16:10:23.454Z,41.30
2018-05-11T16:12:52.716Z,40.19
2018-05-11T16:15:21.428Z,40.17
2018-05-11T16:17:50.616Z,40.25
2018-05-11T16:20:19.063Z,40.42
2018-05-11T16:22:47.541Z,41.06
2018-05-11T16:25:15.960Z,40.69
2018-05-11T16:27:45.115Z,40.62
2018-05-11T16:30:13.688Z,41.13
2018-05-11T16:32:42.081Z,40.63
2018-05-11T16:35:10.499Z,41.40
2018-05-11T16:37:39.815Z,41.26
2018-05-11T16:40:09.090Z,41.17
2018-05-11T16:42:37.531Z,41.03
2018-05-11T16:45:06.011Z,41.59
2018-05-11T16:47:34.352Z,41.59
2018-05-11T16:50:03.554Z,41.68
2018-05-11T16:52:31.881Z,43.41
2018-05-11T16:55:00.232Z,42.78
2018-05-11T16:57:29.844Z,42.88
2018-05-11T16:59:58.160Z,42.76
2018-05-11T17:02:26.540Z,43.36
2018-05-11T17:04:55.702Z,43.61
2018-05-11T17:07:24.036Z,44.12
2018-05-11T17:09:53.156Z,44.25
2018-05-11T17:12:21.553Z,43.75
2018-05-11T17:14:49.968Z,43.48
2018-05-11T17:17:18.366Z,43.61
2018-05-11T17:19:47.460Z,43.75
2018-05-11T17:22:16.547Z,44.26
2018-05-11T17:24:45.058Z,44.62
2018-05-11T17:27:13.369Z,44.24
2018-05-11T17:29:41.778Z,44.19
2018-05-11T17:32:10.129Z,45.19
2018-05-11T17:34:38.522Z,45.21
2018-05-11T17:37:07.689Z,45.17
2018-05-11T17:39:36.047Z,44.69
2018-05-11T17:42:04.376Z,44.76
2018-05-11T17:44:32.773Z,45.11
2018-05-11T17:47:01.129Z,44.76
2018-05-11T17:49:29.535Z,46.24
2018-05-11T17:51:58.640Z,46.07
2018-05-11T17:54:28.471Z,46.11
2018-05-11T17:56:56.841Z,46.19
2018-05-11T17:59:25.987Z,46.18
2018-05-11T18:01:54.755Z,47.36
2018-05-11T18:04:23.099Z,45.96
2018-05-11T18:06:52.201Z,45.74
2018-05-11T18:09:21.336Z,46.30
2018-05-11T18:11:51.050Z,47.17
2018-05-11T18:14:20.954Z,47.12
2018-05-11T18:16:49.323Z,47.45
2018-05-11T18:19:17.695Z,47.83
2018-05-11T18:21:46.073Z,47.54
2018-05-11T18:24:14.394Z,47.30
2018-05-11T18:26:42.764Z,47.13
2018-05-11T18:29:11.129Z,48.02
2018-05-11T18:31:39.465Z,47.78
2018-05-11T18:34:09.925Z,48.36
2018-05-11T18:36:38.988Z,48.37
2018-05-11T18:39:08.108Z,48.36
2018-05-11T18:41:36.476Z,48.54
2018-05-11T18:44:05.067Z,48.87
2018-05-11T18:46:33.481Z,49.14
2018-05-11T18:49:02.030Z,50.24
2018-05-11T18:51:30.502Z,49.12
2018-05-11T18:53:59.401Z,49.36
2018-05-11T18:56:28.133Z,49.80
2018-05-11T18:58:56.524Z,49.69
2018-05-11T19:01:24.873Z,50.12
2018-05-11T19:03:53.246Z,49.76
2018-05-11T19:06:21.597Z,49.79
2018-05-11T19:08:50.335Z,49.97
2018-05-11T19:11:18.689Z,50.56
2018-05-11T19:13:47.199Z,50.89
2018-05-11T19:16:15.643Z,50.85
2018-05-11T19:18:43.993Z,51.02
2018-05-11T19:21:12.434Z,51.20
2018-05-11T19:23:40.874Z,51.46
2018-05-11T19:26:09.307Z,51.31
2018-05-11T19:28:37.807Z,51.35
2018-05-11T19:31:07.218Z,51.63
2018-05-11T19:33:36.334Z,51.84
2018-05-11T19:36:05.022Z,52.26
2018-05-11T19:38:33.376Z,51.96
2018-05-11T19:41:02.791Z,52.04
2018-05-11T19:43:31.985Z,52.29
2018-05-11T19:46:00.362Z,52.33
2018-05-11T19:48:29.570Z,52.73
2018-05-11T19:50:58.071Z,52.14
2018-05-11T19:53:26.546Z,52.55
2018-05-11T19:55:54.903Z,52.54
2018-05-11T19:58:23.941Z,52.72
2018-05-11T20:00:53.188Z,52.32
2018-05-11T20:03:22.465Z,52.12
2018-05-11T20:05:50.822Z,52.60
2018-05-11T20:08:19.248Z,52.69
2018-05-11T20:10:48.451Z,53.14
2018-05-11T20:13:17.638Z,52.78
2018-05-11T20:15:47.369Z,53.16
2018-05-11T20:18:16.606Z,53.25
2018-05-11T20:20:44.964Z,53.08
2018-05-11T20:23:13.333Z,53.17
2018-05-11T20:25:41.731Z,52.95
2018-05-11T20:28:10.147Z,53.26
2018-05-11T20:30:39.914Z,52.79
2018-05-11T20:33:08.262Z,53.03
2018-05-11T20:35:36.628Z,52.99
2018-05-11T20:38:05.785Z,53.29
2018-05-11T20:40:35.165Z,53.57
2018-05-11T20:43:03.681Z,53.81
2018-05-11T20:45:32.229Z,54.03
2018-05-11T20:48:01.680Z,54.15
2018-05-11T20:50:30.048Z,54.28
2018-05-11T20:52:59.322Z,54.29
2018-05-11T20:55:27.676Z,54.61
2018-05-11T20:57:56.038Z,54.50
2018-05-11T21:00:24.392Z,54.51
2018-05-11T21:02:52.754Z,54.83
2018-05-11T21:05:21.097Z,54.26
2018-05-11T21:07:49.484Z,54.08
2018-05-11T21:10:17.813Z,54.70
2018-05-11T21:12:46.925Z,54.80
2018-05-11T21:15:15.357Z,54.95
2018-05-11T21:17:44.271Z,55.20
2018-05-11T21:20:13.550Z,55.23
2018-05-11T21:22:41.936Z,55.49
2018-05-11T21:25:10.390Z,55.59
2018-05-11T21:27:39.150Z,55.58
2018-05-11T21:30:08.340Z,55.88
2018-05-11T21:32:36.721Z,55.75
2018-05-11T21:35:05.909Z,56.03
2018-05-11T21:37:34.269Z,56.15
2018-05-11T21:40:03.601Z,56.31
2018-05-11T21:42:32.016Z,56.21
2018-05-11T21:45:00.489Z,56.48
2018-05-11T21:47:28.849Z,56.36
2018-05-11T21:49:57.214Z,56.46
2018-05-11T21:52:25.603Z,56.69
2018-05-11T21:54:55.056Z,56.62
2018-05-11T21:57:23.725Z,56.57
2018-05-11T21:59:53.421Z,56.96
2018-05-11T22:02:26.984Z,56.79
2018-05-11T22:04:55.977Z,56.89
2018-05-11T22:07:24.417Z,57.19
2018-05-11T22:09:53.286Z,57.03
2018-05-11T22:12:21.900Z,57.47
2018-05-11T22:14:50.772Z,57.71
2018-05-11T22:17:19.231Z,57.69
2018-05-11T22:19:48.407Z,57.82
2018-05-11T22:22:16.817Z,57.93
2018-05-11T22:24:45.167Z,58.47
2018-05-11T22:27:13.539Z,58.47
2018-05-11T22:29:43.372Z,58.65
2018-05-11T22:32:11.847Z,58.72
2018-05-11T22:34:40.209Z,58.79
2018-05-11T22:37:10.327Z,58.80
2018-05-11T22:39:40.912Z,59.14
2018-05-11T22:42:09.279Z,59.31
2018-05-11T22:44:37.866Z,59.13
2018-05-11T22:47:06.237Z,59.05
2018-05-11T22:49:34.629Z,59.06
2018-05-11T22:52:03.908Z,58.98
2018-05-11T22:54:32.283Z,59.01
2018-05-11T22:57:00.748Z,59.27
2018-05-11T22:59:29.153Z,58.98
2018-05-11T23:01:58.509Z,58.90
2018-05-11T23:04:29.371Z,59.04
2018-05-11T23:06:57.945Z,58.66
2018-05-11T23:09:27.156Z,58.89
2018-05-11T23:11:55.650Z,58.54
2018-05-11T23:14:25.330Z,58.48
2018-05-11T23:16:54.761Z,58.65
2018-05-11T23:19:23.178Z,58.63
2018-05-11T23:21:51.535Z,58.27
2018-05-11T23:24:19.910Z,58.56
2018-05-11T23:26:49.025Z,58.59
2018-05-11T23:29:17.669Z,58.38
2018-05-11T23:31:46.933Z,58.44
2018-05-11T23:34:15.571Z,58.48
2018-05-11T23:36:44.882Z,58.24
2018-05-11T23:39:13.267Z,58.27
2018-05-11T23:41:41.716Z,58.54
2018-05-11T23:44:10.055Z,58.19
2018-05-11T23:46:39.172Z,58.40
2018-05-11T23:49:08.289Z,58.53
2018-05-11T23:51:36.641Z,58.50
2018-05-11T23:54:05.738Z,58.37
2018-05-11T23:56:34.839Z,58.47
2018-05-11T23:59:04.630Z,58.63
